sensor_id;sensor_type;location;lat;lon;timestamp;P1;durP1;ratioP1;P2;durP2;ratioP2
48963;SDS011;34776;48.180;16.420;2023-07-22T00:00:24;5.57;;;3.08;;
48963;SDS011;34776;48.180;16.420;2023-07-22T00:02:49;3.03;;;2.60;;
48963;SDS011;34776;48.180;16.420;2023-07-22T00:05:14;6.05;;;3.30;;
48963;SDS011;34776;48.180;16.420;2023-07-22T00:07:40;6.60;;;2.75;;
48963;SDS011;34776;48.180;16.420;2023-07-22T00:10:05;3.00;;;2.67;;
48963;SDS011;34776;48.180;16.420;2023-07-22T00:12:33;4.22;;;2.90;;
48963;SDS011;34776;48.180;16.420;2023-07-22T00:14:59;4.57;;;3.17;;
48963;SDS011;34776;48.180;16.420;2023-07-22T00:17:24;4.35;;;2.97;;
48963;SDS011;34776;48.180;16.420;2023-07-22T00:19:50;3.90;;;3.05;;
48963;SDS011;34776;48.180;16.420;2023-07-22T00:22:15;3.22;;;2.85;;
48963;SDS011;34776;48.180;16.420;2023-07-22T00:24:41;4.72;;;3.05;;
48963;SDS011;34776;48.180;16.420;2023-07-22T00:27:06;4.38;;;3.10;;
48963;SDS011;34776;48.180;16.420;2023-07-22T00:29:33;3.53;;;3.15;;
48963;SDS011;34776;48.180;16.420;2023-07-22T00:32:02;4.40;;;2.95;;
48963;SDS011;34776;48.180;16.420;2023-07-22T00:34:27;4.13;;;3.00;;
48963;SDS011;34776;48.180;16.420;2023-07-22T00:36:52;3.88;;;2.70;;
48963;SDS011;34776;48.180;16.420;2023-07-22T00:39:18;4.78;;;3.28;;
48963;SDS011;34776;48.180;16.420;2023-07-22T00:41:44;3.78;;;2.83;;
48963;SDS011;34776;48.180;16.420;2023-07-22T00:44:12;7.88;;;3.47;;
48963;SDS011;34776;48.180;16.420;2023-07-22T00:46:38;4.70;;;2.90;;
48963;SDS011;34776;48.180;16.420;2023-07-22T00:49:07;3.30;;;3.00;;
48963;SDS011;34776;48.180;16.420;2023-07-22T00:51:33;3.83;;;2.95;;
48963;SDS011;34776;48.180;16.420;2023-07-22T00:53:58;4.47;;;2.83;;
48963;SDS011;34776;48.180;16.420;2023-07-22T00:56:23;5.40;;;2.67;;
48963;SDS011;34776;48.180;16.420;2023-07-22T00:58:49;4.05;;;3.42;;
48963;SDS011;34776;48.180;16.420;2023-07-22T01:01:15;3.90;;;2.72;;
48963;SDS011;34776;48.180;16.420;2023-07-22T01:03:41;4.70;;;2.67;;
48963;SDS011;34776;48.180;16.420;2023-07-22T01:06:07;5.93;;;2.95;;
48963;SDS011;34776;48.180;16.420;2023-07-22T01:08:33;3.83;;;2.90;;
48963;SDS011;34776;48.180;16.420;2023-07-22T01:10:58;3.20;;;2.75;;
48963;SDS011;34776;48.180;16.420;2023-07-22T01:13:24;3.72;;;2.80;;
48963;SDS011;34776;48.180;16.420;2023-07-22T01:15:49;3.92;;;2.83;;
48963;SDS011;34776;48.180;16.420;2023-07-22T01:18:16;3.92;;;2.97;;
48963;SDS011;34776;48.180;16.420;2023-07-22T01:20:42;4.00;;;3.17;;
48963;SDS011;34776;48.180;16.420;2023-07-22T01:23:08;3.72;;;3.03;;
48963;SDS011;34776;48.180;16.420;2023-07-22T01:25:34;3.72;;;2.88;;
48963;SDS011;34776;48.180;16.420;2023-07-22T01:28:00;4.05;;;3.08;;
48963;SDS011;34776;48.180;16.420;2023-07-22T01:30:25;3.47;;;2.97;;
48963;SDS011;34776;48.180;16.420;2023-07-22T01:32:52;3.20;;;2.80;;
48963;SDS011;34776;48.180;16.420;2023-07-22T01:35:18;4.60;;;3.00;;
48963;SDS011;34776;48.180;16.420;2023-07-22T01:37:44;3.92;;;2.70;;
48963;SDS011;34776;48.180;16.420;2023-07-22T01:40:10;3.35;;;3.00;;
48963;SDS011;34776;48.180;16.420;2023-07-22T01:42:40;3.42;;;3.00;;
48963;SDS011;34776;48.180;16.420;2023-07-22T01:45:07;3.45;;;3.15;;
48963;SDS011;34776;48.180;16.420;2023-07-22T01:47:36;4.80;;;3.13;;
48963;SDS011;34776;48.180;16.420;2023-07-22T01:50:02;3.38;;;3.08;;
48963;SDS011;34776;48.180;16.420;2023-07-22T01:52:28;4.00;;;2.58;;
48963;SDS011;34776;48.180;16.420;2023-07-22T01:54:54;2.85;;;2.50;;
48963;SDS011;34776;48.180;16.420;2023-07-22T01:57:19;5.20;;;2.80;;
48963;SDS011;34776;48.180;16.420;2023-07-22T01:59:45;3.33;;;2.75;;
48963;SDS011;34776;48.180;16.420;2023-07-22T02:02:10;3.50;;;2.75;;
48963;SDS011;34776;48.180;16.420;2023-07-22T02:04:35;4.07;;;3.05;;
48963;SDS011;34776;48.180;16.420;2023-07-22T02:07:01;3.38;;;3.08;;
48963;SDS011;34776;48.180;16.420;2023-07-22T02:09:26;4.75;;;2.60;;
48963;SDS011;34776;48.180;16.420;2023-07-22T02:11:52;4.10;;;2.92;;
48963;SDS011;34776;48.180;16.420;2023-07-22T02:14:18;3.78;;;2.97;;
48963;SDS011;34776;48.180;16.420;2023-07-22T02:16:43;4.30;;;3.05;;
48963;SDS011;34776;48.180;16.420;2023-07-22T02:19:09;5.05;;;3.05;;
48963;SDS011;34776;48.180;16.420;2023-07-22T02:21:34;5.78;;;2.70;;
48963;SDS011;34776;48.180;16.420;2023-07-22T02:24:00;3.75;;;3.08;;
48963;SDS011;34776;48.180;16.420;2023-07-22T02:26:25;3.50;;;3.05;;
48963;SDS011;34776;48.180;16.420;2023-07-22T02:28:50;3.65;;;3.00;;
48963;SDS011;34776;48.180;16.420;2023-07-22T02:31:16;4.35;;;3.30;;
48963;SDS011;34776;48.180;16.420;2023-07-22T02:33:41;3.70;;;2.85;;
48963;SDS011;34776;48.180;16.420;2023-07-22T02:36:06;4.05;;;2.95;;
48963;SDS011;34776;48.180;16.420;2023-07-22T02:38:32;4.43;;;3.53;;
48963;SDS011;34776;48.180;16.420;2023-07-22T02:41:01;5.43;;;3.55;;
48963;SDS011;34776;48.180;16.420;2023-07-22T02:43:28;5.20;;;3.20;;
48963;SDS011;34776;48.180;16.420;2023-07-22T02:45:53;3.17;;;2.80;;
48963;SDS011;34776;48.180;16.420;2023-07-22T02:48:20;3.20;;;2.90;;
48963;SDS011;34776;48.180;16.420;2023-07-22T02:50:45;3.67;;;3.17;;
48963;SDS011;34776;48.180;16.420;2023-07-22T02:53:10;5.65;;;3.20;;
48963;SDS011;34776;48.180;16.420;2023-07-22T02:55:36;7.85;;;3.40;;
48963;SDS011;34776;48.180;16.420;2023-07-22T02:58:01;4.97;;;3.33;;
48963;SDS011;34776;48.180;16.420;2023-07-22T03:00:27;4.88;;;3.22;;
48963;SDS011;34776;48.180;16.420;2023-07-22T03:02:53;5.68;;;3.20;;
48963;SDS011;34776;48.180;16.420;2023-07-22T03:05:28;5.88;;;3.33;;
48963;SDS011;34776;48.180;16.420;2023-07-22T03:07:55;4.05;;;3.17;;
48963;SDS011;34776;48.180;16.420;2023-07-22T03:10:21;3.85;;;3.10;;
48963;SDS011;34776;48.180;16.420;2023-07-22T03:12:46;5.60;;;3.78;;
48963;SDS011;34776;48.180;16.420;2023-07-22T03:15:12;5.00;;;3.17;;
48963;SDS011;34776;48.180;16.420;2023-07-22T03:17:38;3.85;;;3.17;;
48963;SDS011;34776;48.180;16.420;2023-07-22T03:20:07;3.50;;;3.20;;
48963;SDS011;34776;48.180;16.420;2023-07-22T03:22:39;3.72;;;2.97;;
48963;SDS011;34776;48.180;16.420;2023-07-22T03:25:04;5.78;;;3.45;;
48963;SDS011;34776;48.180;16.420;2023-07-22T03:27:33;4.30;;;3.17;;
48963;SDS011;34776;48.180;16.420;2023-07-22T03:29:58;3.60;;;3.28;;
48963;SDS011;34776;48.180;16.420;2023-07-22T03:32:23;4.93;;;3.15;;
48963;SDS011;34776;48.180;16.420;2023-07-22T03:34:50;3.35;;;3.00;;
48963;SDS011;34776;48.180;16.420;2023-07-22T03:37:16;4.18;;;3.05;;
48963;SDS011;34776;48.180;16.420;2023-07-22T03:39:41;5.40;;;3.30;;
48963;SDS011;34776;48.180;16.420;2023-07-22T03:42:06;3.75;;;3.35;;
48963;SDS011;34776;48.180;16.420;2023-07-22T03:44:32;5.18;;;3.17;;
48963;SDS011;34776;48.180;16.420;2023-07-22T03:46:57;6.38;;;3.08;;
48963;SDS011;34776;48.180;16.420;2023-07-22T03:49:22;4.18;;;2.72;;
48963;SDS011;34776;48.180;16.420;2023-07-22T03:51:48;4.38;;;3.35;;
48963;SDS011;34776;48.180;16.420;2023-07-22T03:54:13;3.83;;;2.80;;
48963;SDS011;34776;48.180;16.420;2023-07-22T03:56:40;3.78;;;3.03;;
48963;SDS011;34776;48.180;16.420;2023-07-22T03:59:06;3.95;;;3.10;;
48963;SDS011;34776;48.180;16.420;2023-07-22T04:01:32;3.45;;;2.88;;
48963;SDS011;34776;48.180;16.420;2023-07-22T04:03:58;3.00;;;2.70;;
48963;SDS011;34776;48.180;16.420;2023-07-22T04:06:23;7.18;;;2.90;;
48963;SDS011;34776;48.180;16.420;2023-07-22T04:08:48;5.93;;;2.95;;
48963;SDS011;34776;48.180;16.420;2023-07-22T04:11:14;3.25;;;2.75;;
48963;SDS011;34776;48.180;16.420;2023-07-22T04:13:39;7.13;;;3.15;;
48963;SDS011;34776;48.180;16.420;2023-07-22T04:16:05;3.40;;;3.00;;
48963;SDS011;34776;48.180;16.420;2023-07-22T04:18:30;5.32;;;3.28;;
48963;SDS011;34776;48.180;16.420;2023-07-22T04:24:02;3.08;;;2.78;;
48963;SDS011;34776;48.180;16.420;2023-07-22T04:26:27;3.88;;;2.92;;
48963;SDS011;34776;48.180;16.420;2023-07-22T04:28:53;4.05;;;3.00;;
48963;SDS011;34776;48.180;16.420;2023-07-22T04:31:18;4.63;;;2.97;;
48963;SDS011;34776;48.180;16.420;2023-07-22T04:33:44;8.77;;;3.25;;
48963;SDS011;34776;48.180;16.420;2023-07-22T04:36:09;3.40;;;2.70;;
48963;SDS011;34776;48.180;16.420;2023-07-22T04:38:35;3.95;;;3.55;;
48963;SDS011;34776;48.180;16.420;2023-07-22T04:41:00;3.33;;;2.88;;
48963;SDS011;34776;48.180;16.420;2023-07-22T04:43:28;3.85;;;3.08;;
48963;SDS011;34776;48.180;16.420;2023-07-22T04:45:54;3.72;;;2.95;;
48963;SDS011;34776;48.180;16.420;2023-07-22T04:48:21;3.63;;;3.10;;
48963;SDS011;34776;48.180;16.420;2023-07-22T04:50:49;8.13;;;3.10;;
48963;SDS011;34776;48.180;16.420;2023-07-22T04:53:16;4.25;;;3.45;;
48963;SDS011;34776;48.180;16.420;2023-07-22T04:55:42;4.72;;;3.30;;
48963;SDS011;34776;48.180;16.420;2023-07-22T04:58:11;4.10;;;3.00;;
48963;SDS011;34776;48.180;16.420;2023-07-22T05:00:36;4.30;;;3.17;;
48963;SDS011;34776;48.180;16.420;2023-07-22T05:03:03;5.10;;;2.85;;
48963;SDS011;34776;48.180;16.420;2023-07-22T05:05:29;4.20;;;2.88;;
48963;SDS011;34776;48.180;16.420;2023-07-22T05:07:54;4.72;;;3.47;;
48963;SDS011;34776;48.180;16.420;2023-07-22T05:10:20;4.75;;;2.70;;
48963;SDS011;34776;48.180;16.420;2023-07-22T05:12:45;3.00;;;2.70;;
48963;SDS011;34776;48.180;16.420;2023-07-22T05:15:11;3.28;;;2.80;;
48963;SDS011;34776;48.180;16.420;2023-07-22T05:17:37;3.45;;;3.03;;
48963;SDS011;34776;48.180;16.420;2023-07-22T05:20:03;3.42;;;2.85;;
48963;SDS011;34776;48.180;16.420;2023-07-22T05:22:31;4.30;;;2.92;;
48963;SDS011;34776;48.180;16.420;2023-07-22T05:24:57;4.95;;;2.85;;
48963;SDS011;34776;48.180;16.420;2023-07-22T05:27:22;6.05;;;2.63;;
48963;SDS011;34776;48.180;16.420;2023-07-22T05:29:48;3.10;;;2.80;;
48963;SDS011;34776;48.180;16.420;2023-07-22T05:32:13;3.55;;;2.80;;
48963;SDS011;34776;48.180;16.420;2023-07-22T05:34:39;9.27;;;3.30;;
48963;SDS011;34776;48.180;16.420;2023-07-22T05:37:04;4.00;;;2.90;;
48963;SDS011;34776;48.180;16.420;2023-07-22T05:39:30;3.47;;;2.78;;
48963;SDS011;34776;48.180;16.420;2023-07-22T05:41:55;4.53;;;2.88;;
48963;SDS011;34776;48.180;16.420;2023-07-22T05:44:21;3.30;;;3.00;;
48963;SDS011;34776;48.180;16.420;2023-07-22T05:46:47;5.05;;;3.28;;
48963;SDS011;34776;48.180;16.420;2023-07-22T05:49:12;5.63;;;3.10;;
48963;SDS011;34776;48.180;16.420;2023-07-22T05:51:37;5.22;;;3.25;;
48963;SDS011;34776;48.180;16.420;2023-07-22T05:54:03;3.92;;;3.22;;
48963;SDS011;34776;48.180;16.420;2023-07-22T05:56:28;5.07;;;3.20;;
48963;SDS011;34776;48.180;16.420;2023-07-22T05:58:54;3.40;;;3.10;;
48963;SDS011;34776;48.180;16.420;2023-07-22T06:01:19;5.53;;;3.38;;
48963;SDS011;34776;48.180;16.420;2023-07-22T06:03:45;6.93;;;3.28;;
48963;SDS011;34776;48.180;16.420;2023-07-22T06:06:10;16.38;;;4.40;;
48963;SDS011;34776;48.180;16.420;2023-07-22T06:08:35;6.03;;;3.10;;
48963;SDS011;34776;48.180;16.420;2023-07-22T06:11:01;21.08;;;3.50;;
48963;SDS011;34776;48.180;16.420;2023-07-22T06:13:26;3.90;;;2.85;;
48963;SDS011;34776;48.180;16.420;2023-07-22T06:15:52;6.68;;;2.80;;
48963;SDS011;34776;48.180;16.420;2023-07-22T06:18:17;4.22;;;2.90;;
48963;SDS011;34776;48.180;16.420;2023-07-22T06:20:43;3.67;;;2.63;;
48963;SDS011;34776;48.180;16.420;2023-07-22T06:23:09;5.22;;;3.10;;
48963;SDS011;34776;48.180;16.420;2023-07-22T06:25:34;8.00;;;2.90;;
48963;SDS011;34776;48.180;16.420;2023-07-22T06:28:00;7.93;;;3.13;;
48963;SDS011;34776;48.180;16.420;2023-07-22T06:30:26;4.65;;;2.58;;
48963;SDS011;34776;48.180;16.420;2023-07-22T06:32:52;3.50;;;2.72;;
48963;SDS011;34776;48.180;16.420;2023-07-22T06:35:17;4.75;;;2.72;;
48963;SDS011;34776;48.180;16.420;2023-07-22T06:37:43;5.55;;;2.65;;
48963;SDS011;34776;48.180;16.420;2023-07-22T06:40:08;2.70;;;2.40;;
48963;SDS011;34776;48.180;16.420;2023-07-22T06:42:35;7.70;;;5.32;;
48963;SDS011;34776;48.180;16.420;2023-07-22T06:45:00;3.83;;;3.42;;
48963;SDS011;34776;48.180;16.420;2023-07-22T06:47:26;4.53;;;2.60;;
48963;SDS011;34776;48.180;16.420;2023-07-22T06:49:51;3.25;;;2.83;;
48963;SDS011;34776;48.180;16.420;2023-07-22T06:52:17;16.75;;;4.90;;
48963;SDS011;34776;48.180;16.420;2023-07-22T06:54:42;3.45;;;2.47;;
48963;SDS011;34776;48.180;16.420;2023-07-22T06:57:08;2.92;;;2.00;;
48963;SDS011;34776;48.180;16.420;2023-07-22T06:59:34;3.83;;;2.33;;
48963;SDS011;34776;48.180;16.420;2023-07-22T07:01:59;10.50;;;2.50;;
48963;SDS011;34776;48.180;16.420;2023-07-22T07:04:24;3.45;;;2.30;;
48963;SDS011;34776;48.180;16.420;2023-07-22T07:06:51;2.00;;;1.80;;
48963;SDS011;34776;48.180;16.420;2023-07-22T07:09:16;3.40;;;1.77;;
48963;SDS011;34776;48.180;16.420;2023-07-22T07:11:41;8.48;;;1.90;;
48963;SDS011;34776;48.180;16.420;2023-07-22T07:14:07;2.75;;;2.05;;
48963;SDS011;34776;48.180;16.420;2023-07-22T07:16:32;2.63;;;2.08;;
48963;SDS011;34776;48.180;16.420;2023-07-22T07:18:58;3.13;;;2.83;;
48963;SDS011;34776;48.180;16.420;2023-07-22T07:21:25;5.38;;;2.20;;
48963;SDS011;34776;48.180;16.420;2023-07-22T07:23:51;3.13;;;2.00;;
48963;SDS011;34776;48.180;16.420;2023-07-22T07:26:17;1.88;;;1.40;;
48963;SDS011;34776;48.180;16.420;2023-07-22T07:28:43;3.92;;;2.35;;
48963;SDS011;34776;48.180;16.420;2023-07-22T07:31:09;2.67;;;2.10;;
48963;SDS011;34776;48.180;16.420;2023-07-22T07:33:35;2.45;;;1.73;;
48963;SDS011;34776;48.180;16.420;2023-07-22T07:36:01;3.63;;;2.05;;
48963;SDS011;34776;48.180;16.420;2023-07-22T07:38:28;2.00;;;1.75;;
48963;SDS011;34776;48.180;16.420;2023-07-22T07:40:57;2.47;;;2.28;;
48963;SDS011;34776;48.180;16.420;2023-07-22T07:43:24;3.03;;;1.95;;
48963;SDS011;34776;48.180;16.420;2023-07-22T07:45:49;1.73;;;1.63;;
48963;SDS011;34776;48.180;16.420;2023-07-22T07:48:15;4.72;;;2.00;;
48963;SDS011;34776;48.180;16.420;2023-07-22T07:50:41;2.03;;;1.83;;
48963;SDS011;34776;48.180;16.420;2023-07-22T07:53:07;3.53;;;1.65;;
48963;SDS011;34776;48.180;16.420;2023-07-22T07:55:32;2.70;;;1.92;;
48963;SDS011;34776;48.180;16.420;2023-07-22T07:57:58;4.95;;;1.65;;
48963;SDS011;34776;48.180;16.420;2023-07-22T08:00:24;1.58;;;1.48;;
48963;SDS011;34776;48.180;16.420;2023-07-22T08:02:49;3.30;;;1.45;;
48963;SDS011;34776;48.180;16.420;2023-07-22T08:05:15;2.47;;;1.40;;
48963;SDS011;34776;48.180;16.420;2023-07-22T08:07:41;1.80;;;1.52;;
48963;SDS011;34776;48.180;16.420;2023-07-22T08:10:06;1.95;;;1.60;;
48963;SDS011;34776;48.180;16.420;2023-07-22T08:12:32;6.13;;;1.50;;
48963;SDS011;34776;48.180;16.420;2023-07-22T08:14:58;1.50;;;1.20;;
48963;SDS011;34776;48.180;16.420;2023-07-22T08:17:24;4.40;;;1.77;;
48963;SDS011;34776;48.180;16.420;2023-07-22T08:19:49;2.97;;;1.50;;
48963;SDS011;34776;48.180;16.420;2023-07-22T08:22:14;2.67;;;2.00;;
48963;SDS011;34776;48.180;16.420;2023-07-22T08:24:40;5.13;;;1.90;;
48963;SDS011;34776;48.180;16.420;2023-07-22T08:27:05;6.83;;;1.90;;
48963;SDS011;34776;48.180;16.420;2023-07-22T08:29:30;1.80;;;1.52;;
48963;SDS011;34776;48.180;16.420;2023-07-22T08:31:56;4.20;;;1.65;;
48963;SDS011;34776;48.180;16.420;2023-07-22T08:34:21;2.17;;;1.55;;
48963;SDS011;34776;48.180;16.420;2023-07-22T09:53:16;2.15;;;1.73;;
48963;SDS011;34776;48.180;16.420;2023-07-22T09:55:42;3.28;;;2.20;;
48963;SDS011;34776;48.180;16.420;2023-07-22T09:58:09;3.45;;;1.90;;
48963;SDS011;34776;48.180;16.420;2023-07-22T10:00:36;1.85;;;1.75;;
48963;SDS011;34776;48.180;16.420;2023-07-22T10:03:02;3.60;;;1.90;;
48963;SDS011;34776;48.180;16.420;2023-07-22T10:05:32;2.00;;;1.80;;
48963;SDS011;34776;48.180;16.420;2023-07-22T10:07:59;2.28;;;1.80;;
48963;SDS011;34776;48.180;16.420;2023-07-22T10:10:37;8.93;;;1.95;;
48963;SDS011;34776;48.180;16.420;2023-07-22T10:13:04;2.50;;;1.88;;
48963;SDS011;34776;48.180;16.420;2023-07-22T10:15:30;2.00;;;1.83;;
48963;SDS011;34776;48.180;16.420;2023-07-22T10:17:58;2.58;;;2.10;;
48963;SDS011;34776;48.180;16.420;2023-07-22T10:20:25;4.80;;;1.90;;
48963;SDS011;34776;48.180;16.420;2023-07-22T10:22:51;1.98;;;1.70;;
48963;SDS011;34776;48.180;16.420;2023-07-22T10:25:17;3.58;;;2.22;;
48963;SDS011;34776;48.180;16.420;2023-07-22T10:27:44;3.58;;;2.22;;
48963;SDS011;34776;48.180;16.420;2023-07-22T10:30:12;1.92;;;1.83;;
48963;SDS011;34776;48.180;16.420;2023-07-22T10:32:41;2.03;;;1.88;;
48963;SDS011;34776;48.180;16.420;2023-07-22T10:35:11;3.58;;;2.90;;
48963;SDS011;34776;48.180;16.420;2023-07-22T10:37:44;3.15;;;2.53;;
48963;SDS011;34776;48.180;16.420;2023-07-22T10:50:45;4.25;;;2.10;;
48963;SDS011;34776;48.180;16.420;2023-07-22T10:53:29;5.07;;;2.05;;
48963;SDS011;34776;48.180;16.420;2023-07-22T11:06:30;2.85;;;2.00;;
48963;SDS011;34776;48.180;16.420;2023-07-22T11:08:56;2.28;;;1.67;;
48963;SDS011;34776;48.180;16.420;2023-07-22T11:11:33;2.22;;;1.98;;
48963;SDS011;34776;48.180;16.420;2023-07-22T11:14:13;2.80;;;1.98;;
48963;SDS011;34776;48.180;16.420;2023-07-22T11:24:23;2.53;;;1.90;;
48963;SDS011;34776;48.180;16.420;2023-07-22T11:26:49;2.42;;;1.88;;
48963;SDS011;34776;48.180;16.420;2023-07-22T11:47:28;2.53;;;2.13;;
48963;SDS011;34776;48.180;16.420;2023-07-22T11:49:55;3.13;;;2.00;;
48963;SDS011;34776;48.180;16.420;2023-07-22T12:17:21;2.40;;;2.15;;
48963;SDS011;34776;48.180;16.420;2023-07-22T12:30:07;2.80;;;2.35;;
48963;SDS011;34776;48.180;16.420;2023-07-22T12:37:37;3.65;;;2.53;;
48963;SDS011;34776;48.180;16.420;2023-07-22T12:45:13;2.03;;;1.83;;
48963;SDS011;34776;48.180;16.420;2023-07-22T13:04:04;3.50;;;3.20;;
48963;SDS011;34776;48.180;16.420;2023-07-22T13:11:39;2.73;;;1.90;;
48963;SDS011;34776;48.180;16.420;2023-07-22T13:19:15;2.03;;;1.73;;
48963;SDS011;34776;48.180;16.420;2023-07-22T13:21:40;2.75;;;2.20;;
48963;SDS011;34776;48.180;16.420;2023-07-22T13:24:05;2.25;;;1.90;;
48963;SDS011;34776;48.180;16.420;2023-07-22T13:26:31;2.53;;;2.33;;
48963;SDS011;34776;48.180;16.420;2023-07-22T13:28:57;3.22;;;2.80;;
48963;SDS011;34776;48.180;16.420;2023-07-22T13:31:23;2.65;;;2.33;;
48963;SDS011;34776;48.180;16.420;2023-07-22T13:51:10;2.38;;;2.05;;
48963;SDS011;34776;48.180;16.420;2023-07-22T13:53:35;2.60;;;1.98;;
48963;SDS011;34776;48.180;16.420;2023-07-22T14:21:51;3.60;;;2.10;;
48963;SDS011;34776;48.180;16.420;2023-07-22T14:24:16;2.72;;;2.10;;
48963;SDS011;34776;48.180;16.420;2023-07-22T14:26:41;3.28;;;2.55;;
48963;SDS011;34776;48.180;16.420;2023-07-22T14:39:28;4.55;;;2.15;;
48963;SDS011;34776;48.180;16.420;2023-07-22T14:46:57;2.72;;;1.80;;
48963;SDS011;34776;48.180;16.420;2023-07-22T14:49:23;2.10;;;1.92;;
48963;SDS011;34776;48.180;16.420;2023-07-22T15:14:58;3.83;;;2.70;;
48963;SDS011;34776;48.180;16.420;2023-07-22T15:17:26;3.83;;;2.28;;
48963;SDS011;34776;48.180;16.420;2023-07-22T15:22:27;3.00;;;2.58;;
48963;SDS011;34776;48.180;16.420;2023-07-22T15:35:07;6.50;;;2.70;;
48963;SDS011;34776;48.180;16.420;2023-07-22T15:42:43;3.50;;;2.78;;
48963;SDS011;34776;48.180;16.420;2023-07-22T15:45:09;4.13;;;2.70;;
48963;SDS011;34776;48.180;16.420;2023-07-22T15:47:35;3.30;;;2.58;;
48963;SDS011;34776;48.180;16.420;2023-07-22T15:50:00;5.00;;;3.17;;
48963;SDS011;34776;48.180;16.420;2023-07-22T15:52:26;3.00;;;2.70;;
48963;SDS011;34776;48.180;16.420;2023-07-22T15:54:51;4.88;;;2.70;;
48963;SDS011;34776;48.180;16.420;2023-07-22T15:57:17;2.90;;;2.50;;
48963;SDS011;34776;48.180;16.420;2023-07-22T15:59:42;3.17;;;2.85;;
48963;SDS011;34776;48.180;16.420;2023-07-22T16:02:08;3.88;;;2.80;;
48963;SDS011;34776;48.180;16.420;2023-07-22T16:04:34;4.38;;;3.03;;
48963;SDS011;34776;48.180;16.420;2023-07-22T16:06:59;4.25;;;2.75;;
48963;SDS011;34776;48.180;16.420;2023-07-22T16:09:25;5.15;;;2.88;;
48963;SDS011;34776;48.180;16.420;2023-07-22T16:11:51;3.70;;;2.75;;
48963;SDS011;34776;48.180;16.420;2023-07-22T16:14:17;3.03;;;2.72;;
48963;SDS011;34776;48.180;16.420;2023-07-22T16:16:43;3.40;;;2.90;;
48963;SDS011;34776;48.180;16.420;2023-07-22T16:19:08;3.70;;;2.90;;
48963;SDS011;34776;48.180;16.420;2023-07-22T16:21:33;4.40;;;3.60;;
48963;SDS011;34776;48.180;16.420;2023-07-22T16:23:59;3.95;;;3.47;;
48963;SDS011;34776;48.180;16.420;2023-07-22T16:26:24;3.83;;;2.90;;
48963;SDS011;34776;48.180;16.420;2023-07-22T16:28:49;3.60;;;2.97;;
48963;SDS011;34776;48.180;16.420;2023-07-22T16:31:15;4.18;;;3.17;;
48963;SDS011;34776;48.180;16.420;2023-07-22T16:33:40;4.07;;;3.35;;
48963;SDS011;34776;48.180;16.420;2023-07-22T16:36:06;3.10;;;2.80;;
48963;SDS011;34776;48.180;16.420;2023-07-22T16:38:31;4.78;;;3.17;;
48963;SDS011;34776;48.180;16.420;2023-07-22T16:40:56;5.18;;;4.55;;
48963;SDS011;34776;48.180;16.420;2023-07-22T16:43:22;4.00;;;3.55;;
48963;SDS011;34776;48.180;16.420;2023-07-22T16:45:47;6.97;;;4.90;;
48963;SDS011;34776;48.180;16.420;2023-07-22T16:48:12;6.50;;;4.18;;
48963;SDS011;34776;48.180;16.420;2023-07-22T16:50:38;7.30;;;4.47;;
48963;SDS011;34776;48.180;16.420;2023-07-22T16:53:04;4.53;;;3.10;;
48963;SDS011;34776;48.180;16.420;2023-07-22T16:55:30;5.53;;;3.38;;
48963;SDS011;34776;48.180;16.420;2023-07-22T16:57:55;3.55;;;3.17;;
48963;SDS011;34776;48.180;16.420;2023-07-22T17:00:21;4.68;;;3.05;;
48963;SDS011;34776;48.180;16.420;2023-07-22T17:02:46;3.55;;;2.40;;
48963;SDS011;34776;48.180;16.420;2023-07-22T17:05:12;6.82;;;2.60;;
48963;SDS011;34776;48.180;16.420;2023-07-22T17:07:38;7.75;;;3.40;;
48963;SDS011;34776;48.180;16.420;2023-07-22T17:10:05;4.60;;;2.72;;
48963;SDS011;34776;48.180;16.420;2023-07-22T17:12:31;3.78;;;2.60;;
48963;SDS011;34776;48.180;16.420;2023-07-22T17:14:56;4.25;;;2.80;;
48963;SDS011;34776;48.180;16.420;2023-07-22T17:17:22;3.63;;;2.50;;
48963;SDS011;34776;48.180;16.420;2023-07-22T17:19:47;3.63;;;2.65;;
48963;SDS011;34776;48.180;16.420;2023-07-22T17:22:13;4.00;;;2.60;;
48963;SDS011;34776;48.180;16.420;2023-07-22T17:24:38;3.22;;;2.90;;
48963;SDS011;34776;48.180;16.420;2023-07-22T17:27:04;3.92;;;3.00;;
48963;SDS011;34776;48.180;16.420;2023-07-22T17:29:29;3.70;;;3.20;;
48963;SDS011;34776;48.180;16.420;2023-07-22T17:31:54;3.90;;;2.80;;
48963;SDS011;34776;48.180;16.420;2023-07-22T17:34:20;6.93;;;3.15;;
48963;SDS011;34776;48.180;16.420;2023-07-22T17:36:45;3.70;;;3.08;;
48963;SDS011;34776;48.180;16.420;2023-07-22T17:39:10;5.00;;;3.88;;
48963;SDS011;34776;48.180;16.420;2023-07-22T17:41:36;4.38;;;3.40;;
48963;SDS011;34776;48.180;16.420;2023-07-22T17:44:02;4.57;;;4.10;;
48963;SDS011;34776;48.180;16.420;2023-07-22T17:46:29;3.90;;;3.10;;
48963;SDS011;34776;48.180;16.420;2023-07-22T17:48:55;4.15;;;2.92;;
48963;SDS011;34776;48.180;16.420;2023-07-22T17:51:20;7.85;;;5.93;;
48963;SDS011;34776;48.180;16.420;2023-07-22T17:53:45;5.25;;;4.70;;
48963;SDS011;34776;48.180;16.420;2023-07-22T17:56:10;6.90;;;4.05;;
48963;SDS011;34776;48.180;16.420;2023-07-22T17:58:36;4.25;;;3.47;;
48963;SDS011;34776;48.180;16.420;2023-07-22T18:01:01;4.05;;;2.85;;
48963;SDS011;34776;48.180;16.420;2023-07-22T18:03:27;4.78;;;3.67;;
48963;SDS011;34776;48.180;16.420;2023-07-22T18:05:54;6.40;;;3.22;;
48963;SDS011;34776;48.180;16.420;2023-07-22T18:08:19;5.28;;;3.60;;
48963;SDS011;34776;48.180;16.420;2023-07-22T18:10:44;4.47;;;3.30;;
48963;SDS011;34776;48.180;16.420;2023-07-22T18:13:10;4.35;;;2.70;;
48963;SDS011;34776;48.180;16.420;2023-07-22T18:15:35;19.95;;;3.42;;
48963;SDS011;34776;48.180;16.420;2023-07-22T18:18:01;4.38;;;2.88;;
48963;SDS011;34776;48.180;16.420;2023-07-22T18:20:27;3.33;;;2.97;;
48963;SDS011;34776;48.180;16.420;2023-07-22T18:22:52;4.13;;;3.00;;
48963;SDS011;34776;48.180;16.420;2023-07-22T18:25:18;4.15;;;2.78;;
48963;SDS011;34776;48.180;16.420;2023-07-22T18:27:43;3.38;;;2.78;;
48963;SDS011;34776;48.180;16.420;2023-07-22T18:30:08;4.38;;;2.95;;
48963;SDS011;34776;48.180;16.420;2023-07-22T18:32:34;4.90;;;2.78;;
48963;SDS011;34776;48.180;16.420;2023-07-22T18:34:59;4.07;;;3.15;;
48963;SDS011;34776;48.180;16.420;2023-07-22T18:37:25;4.35;;;2.90;;
48963;SDS011;34776;48.180;16.420;2023-07-22T18:39:51;4.70;;;3.00;;
48963;SDS011;34776;48.180;16.420;2023-07-22T18:42:17;4.70;;;2.90;;
48963;SDS011;34776;48.180;16.420;2023-07-22T18:44:42;4.68;;;4.13;;
48963;SDS011;34776;48.180;16.420;2023-07-22T18:47:07;3.97;;;3.08;;
48963;SDS011;34776;48.180;16.420;2023-07-22T18:49:33;3.38;;;2.95;;
48963;SDS011;34776;48.180;16.420;2023-07-22T18:51:59;3.75;;;2.65;;
48963;SDS011;34776;48.180;16.420;2023-07-22T18:54:24;4.13;;;2.75;;
48963;SDS011;34776;48.180;16.420;2023-07-22T18:56:50;3.33;;;2.80;;
48963;SDS011;34776;48.180;16.420;2023-07-22T18:59:15;3.35;;;2.55;;
48963;SDS011;34776;48.180;16.420;2023-07-22T19:01:40;6.80;;;3.10;;
48963;SDS011;34776;48.180;16.420;2023-07-22T19:04:06;2.65;;;2.45;;
48963;SDS011;34776;48.180;16.420;2023-07-22T19:06:31;3.63;;;2.80;;
48963;SDS011;34776;48.180;16.420;2023-07-22T19:08:57;3.25;;;2.95;;
48963;SDS011;34776;48.180;16.420;2023-07-22T19:11:22;3.78;;;3.00;;
48963;SDS011;34776;48.180;16.420;2023-07-22T19:13:47;4.03;;;3.55;;
48963;SDS011;34776;48.180;16.420;2023-07-22T19:16:14;3.22;;;2.90;;
48963;SDS011;34776;48.180;16.420;2023-07-22T19:18:40;5.82;;;3.60;;
48963;SDS011;34776;48.180;16.420;2023-07-22T19:21:05;4.85;;;4.30;;
48963;SDS011;34776;48.180;16.420;2023-07-22T19:23:30;4.78;;;3.80;;